Atahona, Argentina
Current Conditions -  °F | °C
As of 10:00 AM on Saturday 01 Nov 2014 (Local Time) from SACO Reporting Station
Drizzle Drizzle  
Wind Chill: 57°   Ceiling: 300
Heat Index: 57°   Visibility: 1.8mi
Dew Point: 57°   Wind: 6mph
Humidity: 100%   Direction: 110°ESE
Pressure: 30.21"   Gusts: NA
Location:  30.83°S, 63.55°W
Report Text: SACO 011300Z 11005KT 3000 -DZ BR OVC00314/14 Q1023
Loading
Personal Weather Stations






























Interactive Weather Map New forecast layout! Learn more

10-Day Weather Forecast

Advertisements
Track Severe Weather on mobile